Gurli — SLEG — position and weather

sailwx.info

Track history (hours):
 
Tides and Currents Weather Stations Pressure Air Temp Water Temp Dewpoint Dewpoint Depression Visibility Wind Speed Wind Dir Waves Ship Positions

Gurli

Last reported at 2017-Mar-23 17:33 UTC. Time now 2017-Mar-23 18:06 UTC.
Position N 59°20' E 018°05'.

Length 21 m.

Type: Passenger vessel. MMSI: 265687640.

Date/timePositionNaut miles runAvg speedWind from/ knotsBaromVisibWave heightAir tempDewpointWater temp
2017-Mar-23 17:33N 59°20' E 018°05'0 0.0
2017-Mar-23 16:33N 59°20' E 018°05'0 0.0
2017-Mar-23 15:33N 59°20' E 018°05'0 0.0
2017-Mar-23 14:33N 59°20' E 018°05'0 0.0
2017-Mar-23 13:33N 59°20' E 018°05'0 0.0
2017-Mar-23 12:33N 59°20' E 018°05'0 0.0
2017-Mar-23 11:33N 59°20' E 018°05'0 0.0
2017-Mar-23 10:33N 59°20' E 018°05'0 0.0
2017-Mar-23 09:33N 59°20' E 018°05'0 0.0
2017-Mar-23 08:33N 59°20' E 018°05'0 0.0
2017-Mar-23 07:33N 59°20' E 018°05'0 0.0
2017-Mar-23 06:33N 59°20' E 018°05'0 0.0
2017-Mar-23 05:33N 59°20' E 018°05'0 0.0
2017-Mar-23 04:33N 59°20' E 018°05'0 0.0
2017-Mar-23 03:33N 59°20' E 018°05'0 0.0
2017-Mar-23 02:33N 59°20' E 018°05'0 0.0
2017-Mar-23 01:33N 59°20' E 018°05'0 0.0
2017-Mar-23 00:33N 59°20' E 018°05'0 0.0
2017-Mar-22 23:33N 59°20' E 018°05'0 0.0
2017-Mar-22 22:33N 59°20' E 018°05'0 0.0
2017-Mar-22 21:33N 59°20' E 018°05'0 0.0
2017-Mar-22 20:33N 59°20' E 018°05'0 0.0
2017-Mar-22 19:33N 59°20' E 018°05'0 0.0
2017-Mar-22 18:33N 59°20' E 018°05'0 0.0
2017-Mar-22 17:33N 59°20' E 018°05'0 0.0
2017-Mar-22 16:33N 59°20' E 018°05'0 0.0
2017-Mar-22 15:33N 59°20' E 018°05'0 0.0
2017-Mar-22 14:33N 59°20' E 018°05'0 0.0
2017-Mar-22 13:33N 59°20' E 018°05'0 0.0
2017-Mar-22 12:33N 59°20' E 018°05'0 0.0
2017-Mar-22 11:33N 59°20' E 018°05'0 0.0
2017-Mar-22 10:33N 59°20' E 018°05'0 0.0
2017-Mar-22 09:33N 59°20' E 018°05'1 1.2
2017-Mar-22 08:33N 59°19' E 018°07'1 1.5
2017-Mar-22 07:33N 59°19' E 018°10'1 0.7
2017-Mar-22 06:33N 59°19' E 018°08'0 0.2
2017-Mar-22 05:33N 59°19' E 018°09'2 2.0
2017-Mar-22 04:32N 59°20' E 018°05'0 0.0
2017-Mar-22 03:29N 59°20' E 018°05'0 0.0
2017-Mar-22 02:29N 59°20' E 018°05'0 0.0
2017-Mar-22 01:29N 59°20' E 018°05'0 0.0
2017-Mar-22 00:29N 59°20' E 018°05'0 0.0
2017-Mar-21 23:29N 59°20' E 018°05'0 0.0
2017-Mar-21 22:29N 59°20' E 018°05'0 0.0
2017-Mar-21 21:20N 59°20' E 018°05'0 0.1
2017-Mar-21 18:33N 59°20' E 018°05'0 0.3
2017-Mar-21 17:33N 59°20' E 018°05'2 2.4
2017-Mar-21 16:33N 59°21' E 018°09'2 2.3
2017-Mar-21 15:32N 59°20' E 018°05'2 2.1
2017-Mar-21 14:34N 59°21' E 018°08'2 0.5
2017-Mar-21 10:06N 59°20' E 018°05'0 0.0
2017-Mar-21 09:33N 59°20' E 018°05'1 1.3
2017-Mar-21 08:33N 59°19' E 018°07'1 1.4
2017-Mar-21 07:33N 59°19' E 018°10'1 0.7
2017-Mar-21 06:33N 59°19' E 018°08'0 0.3
2017-Mar-21 05:33N 59°19' E 018°09'2 0.7
2017-Mar-21 02:33N 59°20' E 018°05'0 0.0
2017-Mar-20 23:06N 59°20' E 018°05'0 0.0
2017-Mar-20 19:33N 59°20' E 018°05'0 0.0
2017-Mar-20 18:33N 59°20' E 018°05'0 0.0
2017-Mar-20 17:33N 59°20' E 018°05'0 0.0
2017-Mar-20 16:33N 59°20' E 018°05'0 0.0
2017-Mar-20 15:33N 59°20' E 018°05'0 0.0
2017-Mar-20 14:33N 59°20' E 018°05'0 0.0
2017-Mar-20 13:33N 59°20' E 018°05'0 0.0
2017-Mar-20 12:30N 59°20' E 018°05'0 0.0
2017-Mar-20 11:33N 59°20' E 018°05'0 0.0
2017-Mar-20 10:30N 59°20' E 018°05'0 0.0
2017-Mar-20 09:32N 59°20' E 018°05'0 0.0
2017-Mar-20 08:32N 59°20' E 018°05'0 0.0
2017-Mar-20 07:32N 59°20' E 018°05'0 0.0
2017-Mar-20 06:32N 59°20' E 018°05'0 0.0
2017-Mar-20 05:32N 59°20' E 018°05'0 0.0
2017-Mar-20 04:32N 59°20' E 018°05'0 0.0
2017-Mar-20 03:32N 59°20' E 018°05'0 0.0
2017-Mar-20 02:32N 59°20' E 018°05'0 0.0
2017-Mar-20 01:32N 59°20' E 018°05'0 0.0
2017-Mar-20 00:32N 59°20' E 018°05'0 0.0
2017-Mar-19 23:32N 59°20' E 018°05'0 0.0
2017-Mar-19 22:32N 59°20' E 018°05'0 0.0
2017-Mar-19 21:32N 59°20' E 018°05'0 0.0
2017-Mar-19 20:32N 59°20' E 018°05'0 0.0
2017-Mar-19 19:32N 59°20' E 018°05'0 0.0
2017-Mar-19 18:32N 59°20' E 018°05'0 0.0
2017-Mar-19 17:32N 59°20' E 018°05'0 0.0
2017-Mar-19 16:32N 59°20' E 018°05'0 0.0
2017-Mar-19 15:32N 59°20' E 018°05'0 0.0
2017-Mar-19 14:32N 59°20' E 018°05'0 0.0
2017-Mar-19 13:32N 59°20' E 018°05'0 0.0
2017-Mar-19 12:32N 59°20' E 018°05'0 0.0
2017-Mar-19 11:32N 59°20' E 018°05'0 0.0
2017-Mar-19 10:32N 59°20' E 018°05'0 0.0
2017-Mar-19 09:32N 59°20' E 018°05'0 0.0
2017-Mar-19 08:29N 59°20' E 018°05'0 0.0
2017-Mar-19 07:32N 59°20' E 018°05'0 0.0
2017-Mar-19 06:32N 59°20' E 018°05'0 0.0
2017-Mar-19 05:32N 59°20' E 018°05'0 0.0
2017-Mar-19 04:32N 59°20' E 018°05'0 0.0
2017-Mar-19 03:32N 59°20' E 018°05'0 0.0
2017-Mar-19 02:29N 59°20' E 018°05'0 0.0
2017-Mar-19 01:32N 59°20' E 018°05'0 0.0
2017-Mar-19 00:32N 59°20' E 018°05'0 0.0
2017-Mar-18 23:32N 59°20' E 018°05'0 0.0
2017-Mar-18 22:32N 59°20' E 018°05'0 0.0
2017-Mar-18 21:32N 59°20' E 018°05'0 0.0
2017-Mar-18 20:29N 59°20' E 018°05'0 0.0
2017-Mar-18 19:32N 59°20' E 018°05'0 0.0
2017-Mar-18 18:32N 59°20' E 018°05'0 0.0
2017-Mar-18 17:32N 59°20' E 018°05'0 0.0
2017-Mar-18 16:32N 59°20' E 018°05'0 0.0
2017-Mar-18 15:32N 59°20' E 018°05'0 0.0
2017-Mar-18 14:32N 59°20' E 018°05'0 0.0
2017-Mar-18 13:32N 59°20' E 018°05'0 0.0
2017-Mar-18 12:32N 59°20' E 018°05'0 0.0
2017-Mar-18 11:32N 59°20' E 018°05'0 0.0
2017-Mar-18 10:32N 59°20' E 018°05'0 0.0
2017-Mar-18 09:32N 59°20' E 018°05'0 0.0
2017-Mar-18 08:32N 59°20' E 018°05'0 0.0
2017-Mar-18 07:32N 59°20' E 018°05'0 0.0
2017-Mar-18 06:32N 59°20' E 018°05'0 0.0
2017-Mar-18 05:32N 59°20' E 018°05'0 0.0
2017-Mar-18 04:32N 59°20' E 018°05'0 0.0
2017-Mar-18 03:32N 59°20' E 018°05'0 0.0
2017-Mar-18 02:32N 59°20' E 018°05'0 0.0
2017-Mar-18 01:32N 59°20' E 018°05'0 0.0
2017-Mar-18 00:32N 59°20' E 018°05'0 0.0
2017-Mar-17 23:32N 59°20' E 018°05'0 0.0
2017-Mar-17 22:32N 59°20' E 018°05'0 0.0
2017-Mar-17 21:32N 59°20' E 018°05'0 0.0
2017-Mar-17 20:32N 59°20' E 018°05'0 0.0
2017-Mar-17 19:32N 59°20' E 018°05'0 0.0
2017-Mar-17 18:32N 59°20' E 018°05'2 1.6
2017-Mar-17 17:33N 59°19' E 018°07'0 0.4
2017-Mar-17 16:33N 59°19' E 018°08'1 0.8
2017-Mar-17 15:33N 59°20' E 018°09'2 1.7
2017-Mar-17 14:33N 59°19' E 018°06'2 1.6
2017-Mar-17 13:34N 59°19' E 018°10'2 1.5
2017-Mar-17 12:33N 59°19' E 018°07'1 1.3
2017-Mar-17 11:33N 59°19' E 018°09'1 1.3
2017-Mar-17 10:33N 59°19' E 018°07'1 1.3
2017-Mar-17 09:33N 59°19' E 018°09'1 1.2
2017-Mar-17 08:33N 59°19' E 018°07'2 1.5
2017-Mar-17 07:33N 59°19' E 018°10'2 1.5
2017-Mar-17 06:33N 59°19' E 018°07'1 0.6
2017-Mar-17 05:33N 59°19' E 018°08'2 1.7
2017-Mar-17 04:33N 59°20' E 018°05'0 0.0
2017-Mar-17 03:33N 59°20' E 018°05'0 0.0
2017-Mar-17 02:33N 59°20' E 018°05'0 0.0
2017-Mar-17 01:33N 59°20' E 018°05'0 0.0
2017-Mar-17 00:33N 59°20' E 018°05'0 0.0
2017-Mar-16 23:33N 59°20' E 018°05'0 0.0
2017-Mar-16 22:33N 59°20' E 018°05'0 0.0
2017-Mar-16 21:27N 59°20' E 018°05'0 0.0
2017-Mar-16 20:27N 59°20' E 018°05'0 0.0
2017-Mar-16 19:33N 59°20' E 018°05'1 0.5
2017-Mar-16 18:33N 59°19' E 018°06'1 0.5
2017-Mar-16 17:34N 59°20' E 018°05'2 2.2
2017-Mar-16 16:33N 59°20' E 018°09'2 2.4
2017-Mar-16 15:33N 59°20' E 018°05'2 2.3
2017-Mar-16 14:33N 59°21' E 018°09'2 2.2
2017-Mar-16 13:31N 59°20' E 018°05'0 0.0
2017-Mar-16 12:31N 59°20' E 018°05'0 0.0
2017-Mar-16 11:31N 59°20' E 018°05'0 0.0
2017-Mar-16 10:31N 59°20' E 018°05'0 0.0
2017-Mar-16 09:31N 59°20' E 018°05'1 1.4
2017-Mar-16 08:33N 59°19' E 018°07'1 1.3
2017-Mar-16 07:33N 59°19' E 018°09'1 0.6
2017-Mar-16 06:33N 59°19' E 018°08'0 0.3
2017-Mar-16 05:33N 59°19' E 018°09'2 2.1
2017-Mar-16 04:31N 59°20' E 018°05'0 0.0
2017-Mar-16 03:28N 59°20' E 018°05'0 0.0
2017-Mar-16 02:31N 59°20' E 018°05'0 0.0
2017-Mar-16 01:31N 59°20' E 018°05'0 0.0
2017-Mar-16 00:31N 59°20' E 018°05'0 0.0
2017-Mar-15 23:31N 59°20' E 018°05'0 0.0
2017-Mar-15 22:31N 59°20' E 018°05'0 0.0
2017-Mar-15 21:31N 59°20' E 018°05'0 0.0
2017-Mar-15 20:31N 59°20' E 018°05'0 0.0
2017-Mar-15 19:31N 59°20' E 018°05'0 0.0
2017-Mar-15 18:31N 59°20' E 018°05'2 1.9
2017-Mar-15 17:34N 59°19' E 018°08'0 0.1
2017-Mar-15 16:33N 59°19' E 018°08'1 0.6
2017-Mar-15 15:33N 59°19' E 018°10'2 1.6
2017-Mar-15 14:33N 59°19' E 018°06'1 1.3
2017-Mar-15 13:33N 59°19' E 018°09'1 1.2
2017-Mar-15 12:33N 59°19' E 018°07'2 1.5
2017-Mar-15 11:32N 59°19' E 018°10'2 1.5
2017-Mar-15 10:33N 59°19' E 018°07'2 1.5
2017-Mar-15 09:33N 59°19' E 018°10'2 1.5
2017-Mar-15 08:33N 59°19' E 018°07'2 1.7
2017-Mar-15 07:32N 59°20' E 018°09'2 2.0
2017-Mar-15 06:33N 59°19' E 018°06'1 0.7
2017-Mar-15 05:33N 59°19' E 018°07'1 1.3
2017-Mar-15 04:32N 59°20' E 018°05'0 0.0
2017-Mar-15 03:32N 59°20' E 018°05'0 0.0
2017-Mar-15 02:32N 59°20' E 018°05'0 0.0
2017-Mar-15 01:32N 59°20' E 018°05'0 0.0
2017-Mar-15 00:32N 59°20' E 018°05'0 0.0
2017-Mar-14 23:32N 59°20' E 018°05'0 0.0
2017-Mar-14 22:32N 59°20' E 018°05'0 0.0
2017-Mar-14 21:32N 59°20' E 018°05'0 0.0
2017-Mar-14 20:32N 59°20' E 018°05'0 0.0
2017-Mar-14 19:32N 59°20' E 018°05'0 0.0
2017-Mar-14 18:32N 59°20' E 018°05'2 1.9
2017-Mar-14 17:33N 59°19' E 018°08'0 0.1
2017-Mar-14 16:33N 59°19' E 018°08'1 0.9
2017-Mar-14 15:31N 59°20' E 018°10'2 1.8
2017-Mar-14 14:33N 59°19' E 018°07'1 1.3
2017-Mar-14 13:33N 59°19' E 018°09'1 1.2
2017-Mar-14 12:33N 59°19' E 018°07'2 1.5
2017-Mar-14 11:33N 59°19' E 018°10'2 1.5
2017-Mar-14 10:33N 59°19' E 018°07'1 1.5
2017-Mar-14 09:33N 59°19' E 018°09'1 1.5
2017-Mar-14 08:33N 59°19' E 018°07'2 1.6
2017-Mar-14 07:31N 59°20' E 018°10'2 1.8
2017-Mar-14 06:33N 59°19' E 018°06'0 0.3
2017-Mar-14 05:33N 59°19' E 018°07'1 1.2
2017-Mar-14 04:32N 59°20' E 018°05'0 0.0
2017-Mar-14 03:32N 59°20' E 018°05'0 0.0
2017-Mar-14 02:32N 59°20' E 018°05'0 0.0
2017-Mar-14 01:32N 59°20' E 018°05'0 0.0
2017-Mar-14 00:32N 59°20' E 018°05'0 0.0
2017-Mar-13 23:32N 59°20' E 018°05'0 0.0
2017-Mar-13 22:32N 59°20' E 018°05'0 0.0
2017-Mar-13 21:32N 59°20' E 018°05'0 0.0
2017-Mar-13 20:32N 59°20' E 018°05'0 0.0
2017-Mar-13 19:32N 59°20' E 018°05'0 0.0
2017-Mar-13 18:32N 59°20' E 018°05'2 1.9
2017-Mar-13 17:33N 59°19' E 018°08'  
Track history (hours):
 
Tides and Currents Weather Stations Pressure Air Temp Water Temp Dewpoint Dewpoint Depression Visibility Wind Speed Wind Dir Waves Ship Positions

Gurli

Last reported at 2017-Mar-23 17:33 UTC. Time now 2017-Mar-23 18:06 UTC.
Position N 59°20' E 018°05'.

Length 21 m.

Type: Passenger vessel. MMSI: 265687640.

Date/timePositionNaut miles runAvg speedWind from/ knotsBaromVisibWave heightAir tempDewpointWater temp
2017-Mar-23 17:33N 59°20' E 018°05'0 0.0
2017-Mar-23 16:33N 59°20' E 018°05'0 0.0
2017-Mar-23 15:33N 59°20' E 018°05'0 0.0
2017-Mar-23 14:33N 59°20' E 018°05'0 0.0
2017-Mar-23 13:33N 59°20' E 018°05'0 0.0
2017-Mar-23 12:33N 59°20' E 018°05'0 0.0
2017-Mar-23 11:33N 59°20' E 018°05'0 0.0
2017-Mar-23 10:33N 59°20' E 018°05'0 0.0
2017-Mar-23 09:33N 59°20' E 018°05'0 0.0
2017-Mar-23 08:33N 59°20' E 018°05'0 0.0
2017-Mar-23 07:33N 59°20' E 018°05'0 0.0
2017-Mar-23 06:33N 59°20' E 018°05'0 0.0
2017-Mar-23 05:33N 59°20' E 018°05'0 0.0
2017-Mar-23 04:33N 59°20' E 018°05'0 0.0
2017-Mar-23 03:33N 59°20' E 018°05'0 0.0
2017-Mar-23 02:33N 59°20' E 018°05'0 0.0
2017-Mar-23 01:33N 59°20' E 018°05'0 0.0
2017-Mar-23 00:33N 59°20' E 018°05'0 0.0
2017-Mar-22 23:33N 59°20' E 018°05'0 0.0
2017-Mar-22 22:33N 59°20' E 018°05'0 0.0
2017-Mar-22 21:33N 59°20' E 018°05'0 0.0
2017-Mar-22 20:33N 59°20' E 018°05'0 0.0
2017-Mar-22 19:33N 59°20' E 018°05'0 0.0
2017-Mar-22 18:33N 59°20' E 018°05'0 0.0
2017-Mar-22 17:33N 59°20' E 018°05'0 0.0
2017-Mar-22 16:33N 59°20' E 018°05'0 0.0
2017-Mar-22 15:33N 59°20' E 018°05'0 0.0
2017-Mar-22 14:33N 59°20' E 018°05'0 0.0
2017-Mar-22 13:33N 59°20' E 018°05'0 0.0
2017-Mar-22 12:33N 59°20' E 018°05'0 0.0
2017-Mar-22 11:33N 59°20' E 018°05'0 0.0
2017-Mar-22 10:33N 59°20' E 018°05'0 0.0
2017-Mar-22 09:33N 59°20' E 018°05'1 1.2
2017-Mar-22 08:33N 59°19' E 018°07'1 1.5
2017-Mar-22 07:33N 59°19' E 018°10'1 0.7
2017-Mar-22 06:33N 59°19' E 018°08'0 0.2
2017-Mar-22 05:33N 59°19' E 018°09'2 2.0
2017-Mar-22 04:32N 59°20' E 018°05'0 0.0
2017-Mar-22 03:29N 59°20' E 018°05'0 0.0
2017-Mar-22 02:29N 59°20' E 018°05'0 0.0
2017-Mar-22 01:29N 59°20' E 018°05'0 0.0
2017-Mar-22 00:29N 59°20' E 018°05'0 0.0
2017-Mar-21 23:29N 59°20' E 018°05'0 0.0
2017-Mar-21 22:29N 59°20' E 018°05'0 0.0
2017-Mar-21 21:20N 59°20' E 018°05'0 0.1
2017-Mar-21 18:33N 59°20' E 018°05'0 0.3
2017-Mar-21 17:33N 59°20' E 018°05'2 2.4
2017-Mar-21 16:33N 59°21' E 018°09'2 2.3
2017-Mar-21 15:32N 59°20' E 018°05'2 2.1
2017-Mar-21 14:34N 59°21' E 018°08'2 0.5
2017-Mar-21 10:06N 59°20' E 018°05'0 0.0
2017-Mar-21 09:33N 59°20' E 018°05'1 1.3
2017-Mar-21 08:33N 59°19' E 018°07'1 1.4
2017-Mar-21 07:33N 59°19' E 018°10'1 0.7
2017-Mar-21 06:33N 59°19' E 018°08'0 0.3
2017-Mar-21 05:33N 59°19' E 018°09'2 0.7
2017-Mar-21 02:33N 59°20' E 018°05'0 0.0
2017-Mar-20 23:06N 59°20' E 018°05'0 0.0
2017-Mar-20 19:33N 59°20' E 018°05'0 0.0
2017-Mar-20 18:33N 59°20' E 018°05'0 0.0
2017-Mar-20 17:33N 59°20' E 018°05'0 0.0
2017-Mar-20 16:33N 59°20' E 018°05'0 0.0
2017-Mar-20 15:33N 59°20' E 018°05'0 0.0
2017-Mar-20 14:33N 59°20' E 018°05'0 0.0
2017-Mar-20 13:33N 59°20' E 018°05'0 0.0
2017-Mar-20 12:30N 59°20' E 018°05'0 0.0
2017-Mar-20 11:33N 59°20' E 018°05'0 0.0
2017-Mar-20 10:30N 59°20' E 018°05'0 0.0
2017-Mar-20 09:32N 59°20' E 018°05'0 0.0
2017-Mar-20 08:32N 59°20' E 018°05'0 0.0
2017-Mar-20 07:32N 59°20' E 018°05'0 0.0
2017-Mar-20 06:32N 59°20' E 018°05'0 0.0
2017-Mar-20 05:32N 59°20' E 018°05'0 0.0
2017-Mar-20 04:32N 59°20' E 018°05'0 0.0
2017-Mar-20 03:32N 59°20' E 018°05'0 0.0
2017-Mar-20 02:32N 59°20' E 018°05'0 0.0
2017-Mar-20 01:32N 59°20' E 018°05'0 0.0
2017-Mar-20 00:32N 59°20' E 018°05'0 0.0
2017-Mar-19 23:32N 59°20' E 018°05'0 0.0
2017-Mar-19 22:32N 59°20' E 018°05'0 0.0
2017-Mar-19 21:32N 59°20' E 018°05'0 0.0
2017-Mar-19 20:32N 59°20' E 018°05'0 0.0
2017-Mar-19 19:32N 59°20' E 018°05'0 0.0
2017-Mar-19 18:32N 59°20' E 018°05'0 0.0
2017-Mar-19 17:32N 59°20' E 018°05'0 0.0
2017-Mar-19 16:32N 59°20' E 018°05'0 0.0
2017-Mar-19 15:32N 59°20' E 018°05'0 0.0
2017-Mar-19 14:32N 59°20' E 018°05'0 0.0
2017-Mar-19 13:32N 59°20' E 018°05'0 0.0
2017-Mar-19 12:32N 59°20' E 018°05'0 0.0
2017-Mar-19 11:32N 59°20' E 018°05'0 0.0
2017-Mar-19 10:32N 59°20' E 018°05'0 0.0
2017-Mar-19 09:32N 59°20' E 018°05'0 0.0
2017-Mar-19 08:29N 59°20' E 018°05'0 0.0
2017-Mar-19 07:32N 59°20' E 018°05'0 0.0
2017-Mar-19 06:32N 59°20' E 018°05'0 0.0
2017-Mar-19 05:32N 59°20' E 018°05'0 0.0
2017-Mar-19 04:32N 59°20' E 018°05'0 0.0
2017-Mar-19 03:32N 59°20' E 018°05'0 0.0
2017-Mar-19 02:29N 59°20' E 018°05'0 0.0
2017-Mar-19 01:32N 59°20' E 018°05'0 0.0
2017-Mar-19 00:32N 59°20' E 018°05'0 0.0
2017-Mar-18 23:32N 59°20' E 018°05'0 0.0
2017-Mar-18 22:32N 59°20' E 018°05'0 0.0
2017-Mar-18 21:32N 59°20' E 018°05'0 0.0
2017-Mar-18 20:29N 59°20' E 018°05'0 0.0
2017-Mar-18 19:32N 59°20' E 018°05'0 0.0
2017-Mar-18 18:32N 59°20' E 018°05'0 0.0
2017-Mar-18 17:32N 59°20' E 018°05'0 0.0
2017-Mar-18 16:32N 59°20' E 018°05'0 0.0
2017-Mar-18 15:32N 59°20' E 018°05'0 0.0
2017-Mar-18 14:32N 59°20' E 018°05'0 0.0
2017-Mar-18 13:32N 59°20' E 018°05'0 0.0
2017-Mar-18 12:32N 59°20' E 018°05'0 0.0
2017-Mar-18 11:32N 59°20' E 018°05'0 0.0
2017-Mar-18 10:32N 59°20' E 018°05'0 0.0
2017-Mar-18 09:32N 59°20' E 018°05'0 0.0
2017-Mar-18 08:32N 59°20' E 018°05'0 0.0
2017-Mar-18 07:32N 59°20' E 018°05'0 0.0
2017-Mar-18 06:32N 59°20' E 018°05'0 0.0
2017-Mar-18 05:32N 59°20' E 018°05'0 0.0
2017-Mar-18 04:32N 59°20' E 018°05'0 0.0
2017-Mar-18 03:32N 59°20' E 018°05'0 0.0
2017-Mar-18 02:32N 59°20' E 018°05'0 0.0
2017-Mar-18 01:32N 59°20' E 018°05'0 0.0
2017-Mar-18 00:32N 59°20' E 018°05'0 0.0
2017-Mar-17 23:32N 59°20' E 018°05'0 0.0
2017-Mar-17 22:32N 59°20' E 018°05'0 0.0
2017-Mar-17 21:32N 59°20' E 018°05'0 0.0
2017-Mar-17 20:32N 59°20' E 018°05'0 0.0
2017-Mar-17 19:32N 59°20' E 018°05'0 0.0
2017-Mar-17 18:32N 59°20' E 018°05'2 1.6
2017-Mar-17 17:33N 59°19' E 018°07'0 0.4
2017-Mar-17 16:33N 59°19' E 018°08'1 0.8
2017-Mar-17 15:33N 59°20' E 018°09'2 1.7
2017-Mar-17 14:33N 59°19' E 018°06'2 1.6
2017-Mar-17 13:34N 59°19' E 018°10'2 1.5
2017-Mar-17 12:33N 59°19' E 018°07'1 1.3
2017-Mar-17 11:33N 59°19' E 018°09'1 1.3
2017-Mar-17 10:33N 59°19' E 018°07'1 1.3
2017-Mar-17 09:33N 59°19' E 018°09'1 1.2
2017-Mar-17 08:33N 59°19' E 018°07'2 1.5
2017-Mar-17 07:33N 59°19' E 018°10'2 1.5
2017-Mar-17 06:33N 59°19' E 018°07'1 0.6
2017-Mar-17 05:33N 59°19' E 018°08'2 1.7
2017-Mar-17 04:33N 59°20' E 018°05'0 0.0
2017-Mar-17 03:33N 59°20' E 018°05'0 0.0
2017-Mar-17 02:33N 59°20' E 018°05'0 0.0
2017-Mar-17 01:33N 59°20' E 018°05'0 0.0
2017-Mar-17 00:33N 59°20' E 018°05'0 0.0
2017-Mar-16 23:33N 59°20' E 018°05'0 0.0
2017-Mar-16 22:33N 59°20' E 018°05'0 0.0
2017-Mar-16 21:27N 59°20' E 018°05'0 0.0
2017-Mar-16 20:27N 59°20' E 018°05'0 0.0
2017-Mar-16 19:33N 59°20' E 018°05'1 0.5
2017-Mar-16 18:33N 59°19' E 018°06'1 0.5
2017-Mar-16 17:34N 59°20' E 018°05'2 2.2
2017-Mar-16 16:33N 59°20' E 018°09'2 2.4
2017-Mar-16 15:33N 59°20' E 018°05'2 2.3
2017-Mar-16 14:33N 59°21' E 018°09'2 2.2
2017-Mar-16 13:31N 59°20' E 018°05'0 0.0
2017-Mar-16 12:31N 59°20' E 018°05'0 0.0
2017-Mar-16 11:31N 59°20' E 018°05'0 0.0
2017-Mar-16 10:31N 59°20' E 018°05'0 0.0
2017-Mar-16 09:31N 59°20' E 018°05'1 1.4
2017-Mar-16 08:33N 59°19' E 018°07'1 1.3
2017-Mar-16 07:33N 59°19' E 018°09'1 0.6
2017-Mar-16 06:33N 59°19' E 018°08'0 0.3
2017-Mar-16 05:33N 59°19' E 018°09'2 2.1
2017-Mar-16 04:31N 59°20' E 018°05'0 0.0
2017-Mar-16 03:28N 59°20' E 018°05'0 0.0
2017-Mar-16 02:31N 59°20' E 018°05'0 0.0
2017-Mar-16 01:31N 59°20' E 018°05'0 0.0
2017-Mar-16 00:31N 59°20' E 018°05'0 0.0
2017-Mar-15 23:31N 59°20' E 018°05'0 0.0
2017-Mar-15 22:31N 59°20' E 018°05'0 0.0
2017-Mar-15 21:31N 59°20' E 018°05'0 0.0
2017-Mar-15 20:31N 59°20' E 018°05'0 0.0
2017-Mar-15 19:31N 59°20' E 018°05'0 0.0
2017-Mar-15 18:31N 59°20' E 018°05'2 1.9
2017-Mar-15 17:34N 59°19' E 018°08'0 0.1
2017-Mar-15 16:33N 59°19' E 018°08'1 0.6
2017-Mar-15 15:33N 59°19' E 018°10'2 1.6
2017-Mar-15 14:33N 59°19' E 018°06'1 1.3
2017-Mar-15 13:33N 59°19' E 018°09'1 1.2
2017-Mar-15 12:33N 59°19' E 018°07'2 1.5
2017-Mar-15 11:32N 59°19' E 018°10'2 1.5
2017-Mar-15 10:33N 59°19' E 018°07'2 1.5
2017-Mar-15 09:33N 59°19' E 018°10'2 1.5
2017-Mar-15 08:33N 59°19' E 018°07'2 1.7
2017-Mar-15 07:32N 59°20' E 018°09'2 2.0
2017-Mar-15 06:33N 59°19' E 018°06'1 0.7
2017-Mar-15 05:33N 59°19' E 018°07'1 1.3
2017-Mar-15 04:32N 59°20' E 018°05'0 0.0
2017-Mar-15 03:32N 59°20' E 018°05'0 0.0
2017-Mar-15 02:32N 59°20' E 018°05'0 0.0
2017-Mar-15 01:32N 59°20' E 018°05'0 0.0
2017-Mar-15 00:32N 59°20' E 018°05'0 0.0
2017-Mar-14 23:32N 59°20' E 018°05'0 0.0
2017-Mar-14 22:32N 59°20' E 018°05'0 0.0
2017-Mar-14 21:32N 59°20' E 018°05'0 0.0
2017-Mar-14 20:32N 59°20' E 018°05'0 0.0
2017-Mar-14 19:32N 59°20' E 018°05'0 0.0
2017-Mar-14 18:32N 59°20' E 018°05'2 1.9
2017-Mar-14 17:33N 59°19' E 018°08'0 0.1
2017-Mar-14 16:33N 59°19' E 018°08'1 0.9
2017-Mar-14 15:31N 59°20' E 018°10'2 1.8
2017-Mar-14 14:33N 59°19' E 018°07'1 1.3
2017-Mar-14 13:33N 59°19' E 018°09'1 1.2
2017-Mar-14 12:33N 59°19' E 018°07'2 1.5
2017-Mar-14 11:33N 59°19' E 018°10'2 1.5
2017-Mar-14 10:33N 59°19' E 018°07'1 1.5
2017-Mar-14 09:33N 59°19' E 018°09'1 1.5
2017-Mar-14 08:33N 59°19' E 018°07'2 1.6
2017-Mar-14 07:31N 59°20' E 018°10'2 1.8
2017-Mar-14 06:33N 59°19' E 018°06'0 0.3
2017-Mar-14 05:33N 59°19' E 018°07'1 1.2
2017-Mar-14 04:32N 59°20' E 018°05'0 0.0
2017-Mar-14 03:32N 59°20' E 018°05'0 0.0
2017-Mar-14 02:32N 59°20' E 018°05'0 0.0
2017-Mar-14 01:32N 59°20' E 018°05'0 0.0
2017-Mar-14 00:32N 59°20' E 018°05'0 0.0
2017-Mar-13 23:32N 59°20' E 018°05'0 0.0
2017-Mar-13 22:32N 59°20' E 018°05'0 0.0
2017-Mar-13 21:32N 59°20' E 018°05'0 0.0
2017-Mar-13 20:32N 59°20' E 018°05'0 0.0
2017-Mar-13 19:32N 59°20' E 018°05'0 0.0
2017-Mar-13 18:32N 59°20' E 018°05'2 1.9
2017-Mar-13 17:33N 59°19' E 018°08'  

Dump ship's entire track history